East Herkimer, New York
Current Conditions -  °F | °C
As of 11:53 AM on Monday 22 Dec 2014 (Local Time) from KRME Reporting Station
Overcast Overcast  
Wind Chill: 27°   Ceiling: 2700
Heat Index: 34°   Visibility: 10mi
Dew Point: 27°   Wind: 9mph
Humidity: 75%   Direction: 90°E
Pressure: 30.28"   Gusts: NA
Location:  43.0566°N, 75.0112°W
Report Text: KRME 221653Z 09008KT 10SM OVC027 01/M03 A3028 RMK AO2 SLP258 T00111028
Loading
Personal Weather Stations






























Interactive Weather Map New forecast layout! Learn more

10-Day Weather Forecast

Advertisements
Track Severe Weather on mobile